createdAt,value
2019-03-18T00:02:02.530Z,12.13
2019-03-18T00:04:35.399Z,16.00
2019-03-18T00:07:09.564Z,15.38
2019-03-18T00:09:43.015Z,14.58
2019-03-18T00:12:16.095Z,15.63
2019-03-18T00:15:00.460Z,17.05
2019-03-18T00:17:23.545Z,14.85
2019-03-18T00:19:56.111Z,9.88
2019-03-18T00:22:29.334Z,8.75
2019-03-18T00:25:02.252Z,11.65
2019-03-18T00:27:35.707Z,13.18
2019-03-18T00:30:13.703Z,12.88
2019-03-18T00:32:46.902Z,14.93
2019-03-18T00:35:19.985Z,13.08
2019-03-18T00:37:53.462Z,14.68
2019-03-18T00:40:27.051Z,8.58
2019-03-18T00:43:00.549Z,12.33
2019-03-18T00:45:33.500Z,12.75
2019-03-18T00:48:07.105Z,11.68
2019-03-18T00:50:40.777Z,11.48
2019-03-18T00:53:13.607Z,11.88
2019-03-18T00:55:46.619Z,10.65
2019-03-18T00:58:20.467Z,12.33
2019-03-18T01:00:53.477Z,8.05
2019-03-18T01:03:27.323Z,13.35
2019-03-18T01:06:00.280Z,11.45
2019-03-18T01:08:33.554Z,11.55
2019-03-18T01:11:06.849Z,14.15
2019-03-18T01:13:40.089Z,12.75
2019-03-18T01:16:13.131Z,12.15
2019-03-18T01:18:46.334Z,13.95
2019-03-18T01:21:19.774Z,14.43
2019-03-18T01:23:53.991Z,13.05
2019-03-18T01:26:27.063Z,13.90
2019-03-18T01:29:00.553Z,14.58
2019-03-18T01:31:35.155Z,15.03
2019-03-18T01:34:08.586Z,13.25
2019-03-18T01:36:41.532Z,15.15
2019-03-18T01:39:15.304Z,14.28
2019-03-18T01:41:48.258Z,11.63
2019-03-18T01:44:21.450Z,8.40
2019-03-18T01:46:59.200Z,12.68
2019-03-18T01:49:32.893Z,9.05
2019-03-18T01:52:06.179Z,14.50
2019-03-18T01:54:39.266Z,16.15
2019-03-18T01:57:12.359Z,14.70
2019-03-18T01:59:46.066Z,15.83
2019-03-18T02:02:19.051Z,15.60
2019-03-18T02:04:52.570Z,15.98
2019-03-18T02:07:25.512Z,15.48
2019-03-18T02:10:02.790Z,11.83
2019-03-18T02:12:35.577Z,13.62
2019-03-18T02:15:10.966Z,10.65
2019-03-18T02:17:43.857Z,15.20
2019-03-18T02:20:19.629Z,15.00
2019-03-18T02:22:52.794Z,17.20
2019-03-18T02:25:25.850Z,18.27
2019-03-18T02:28:03.456Z,15.32
2019-03-18T02:30:38.367Z,13.55
2019-03-18T02:33:12.085Z,14.25
2019-03-18T02:35:49.203Z,10.35
2019-03-18T02:38:21.829Z,17.85
2019-03-18T02:40:55.229Z,14.40
2019-03-18T02:43:28.288Z,11.28
2019-03-18T02:46:09.956Z,15.68
2019-03-18T02:48:35.908Z,13.68
2019-03-18T02:51:09.226Z,8.75
2019-03-18T02:53:42.217Z,11.93
2019-03-18T02:56:15.622Z,11.10
2019-03-18T02:58:49.014Z,14.68
2019-03-18T03:01:22.162Z,13.15
2019-03-18T03:03:55.660Z,15.35
2019-03-18T03:06:28.859Z,15.58
2019-03-18T03:09:01.927Z,17.17
2019-03-18T03:11:35.250Z,15.68
2019-03-18T03:14:09.044Z,16.65
2019-03-18T03:16:42.157Z,12.93
2019-03-18T03:19:15.602Z,11.75
2019-03-18T03:21:48.458Z,8.83
2019-03-18T03:24:21.321Z,15.83
2019-03-18T03:26:54.397Z,11.22
2019-03-18T03:29:27.223Z,15.75
2019-03-18T03:32:00.050Z,16.87
2019-03-18T03:34:33.171Z,16.12
2019-03-18T03:37:06.239Z,15.90
2019-03-18T03:39:39.676Z,16.27
2019-03-18T03:42:12.424Z,14.15
2019-03-18T03:44:45.650Z,17.10
2019-03-18T03:47:18.859Z,13.48
2019-03-18T03:49:52.751Z,17.80
2019-03-18T03:52:25.861Z,13.60
2019-03-18T03:54:59.457Z,14.18
2019-03-18T03:57:33.371Z,19.48
2019-03-18T04:00:17.594Z,15.32
2019-03-18T04:02:50.854Z,11.93
2019-03-18T04:05:23.843Z,8.68
2019-03-18T04:07:57.080Z,18.17
2019-03-18T04:10:30.082Z,19.07
2019-03-18T04:13:03.120Z,15.05
2019-03-18T04:15:36.888Z,19.50
2019-03-18T04:18:14.718Z,20.55
2019-03-18T04:20:47.846Z,20.40
2019-03-18T04:23:20.729Z,19.12
2019-03-18T04:25:54.052Z,16.93
2019-03-18T04:28:27.489Z,20.50
2019-03-18T04:31:00.549Z,15.68
2019-03-18T04:33:33.464Z,18.65
2019-03-18T04:36:06.605Z,20.02
2019-03-18T04:38:40.345Z,18.82
2019-03-18T04:41:13.307Z,19.57
2019-03-18T04:43:47.640Z,19.67
2019-03-18T04:46:20.527Z,21.30
2019-03-18T04:48:54.438Z,26.73
2019-03-18T04:51:28.607Z,24.67
2019-03-18T04:54:04.277Z,22.25
2019-03-18T04:56:37.585Z,26.65
2019-03-18T04:59:10.329Z,28.55
2019-03-18T05:01:43.544Z,28.65
2019-03-18T05:04:16.394Z,26.52
2019-03-18T05:06:50.605Z,30.30
2019-03-18T05:09:24.206Z,30.15
2019-03-18T05:11:57.699Z,30.25
2019-03-18T05:14:33.792Z,23.85
2019-03-18T05:17:07.156Z,25.80
2019-03-18T05:19:40.108Z,31.62
2019-03-18T05:22:13.233Z,26.48
2019-03-18T05:24:46.333Z,29.55
2019-03-18T05:27:19.471Z,32.90
2019-03-18T05:29:53.886Z,33.35
2019-03-18T05:32:27.825Z,32.33
2019-03-18T05:35:01.084Z,33.75
2019-03-18T05:37:34.082Z,32.85
2019-03-18T05:40:07.768Z,30.85
2019-03-18T05:42:41.898Z,30.20
2019-03-18T05:45:14.991Z,34.80
2019-03-18T05:47:47.936Z,34.67
2019-03-18T05:50:20.909Z,32.28
2019-03-18T05:52:56.923Z,34.25
2019-03-18T05:55:29.663Z,37.10
2019-03-18T05:58:02.968Z,37.95
2019-03-18T06:00:35.787Z,37.25
2019-03-18T06:03:08.768Z,39.63
2019-03-18T06:05:41.595Z,40.43
2019-03-18T06:08:15.100Z,41.42
2019-03-18T06:10:47.909Z,41.15
2019-03-18T06:13:23.408Z,42.17
2019-03-18T06:15:56.243Z,37.17
2019-03-18T06:18:30.884Z,39.80
2019-03-18T06:21:03.571Z,37.33
2019-03-18T06:23:37.199Z,37.98
2019-03-18T06:26:09.918Z,38.88
2019-03-18T06:28:43.326Z,40.78
2019-03-18T06:31:15.968Z,40.15
2019-03-18T06:33:49.122Z,40.58
2019-03-18T06:36:21.784Z,37.42
2019-03-18T06:38:54.406Z,41.83
2019-03-18T06:41:28.743Z,34.00
2019-03-18T06:44:02.032Z,42.62
2019-03-18T06:46:34.869Z,35.48
2019-03-18T06:49:08.594Z,33.28
2019-03-18T06:51:41.505Z,36.08
2019-03-18T06:54:15.864Z,35.60
2019-03-18T06:56:48.808Z,39.10
2019-03-18T06:59:21.824Z,37.80
2019-03-18T07:01:54.839Z,33.67
2019-03-18T07:04:31.852Z,39.23
2019-03-18T07:07:05.525Z,38.88
2019-03-18T07:09:39.218Z,36.13
2019-03-18T07:12:15.682Z,33.58
2019-03-18T07:14:50.102Z,38.40
2019-03-18T07:17:25.735Z,37.25
2019-03-18T07:19:59.069Z,26.12
2019-03-18T07:22:31.941Z,20.05
2019-03-18T07:25:05.156Z,26.80
2019-03-18T07:27:38.360Z,26.12
2019-03-18T07:30:15.522Z,26.57
2019-03-18T07:32:48.244Z,33.78
2019-03-18T07:35:21.267Z,36.95
2019-03-18T07:37:54.444Z,34.20
2019-03-18T07:40:27.199Z,14.63
2019-03-18T07:43:00.221Z,27.65
2019-03-18T07:45:33.522Z,21.25
2019-03-18T07:48:07.088Z,23.60
2019-03-18T07:50:40.537Z,36.28
2019-03-18T07:53:13.891Z,38.13
2019-03-18T07:55:46.816Z,34.15
2019-03-18T07:58:22.427Z,34.27
2019-03-18T08:00:54.926Z,27.82
2019-03-18T08:03:28.716Z,29.18
2019-03-18T08:06:02.305Z,30.40
2019-03-18T08:08:35.539Z,28.02
2019-03-18T08:11:09.694Z,30.57
2019-03-18T08:13:42.657Z,28.75
2019-03-18T08:16:16.261Z,30.65
2019-03-18T08:18:51.954Z,31.55
2019-03-18T08:21:23.575Z,33.67
2019-03-18T08:23:57.078Z,20.40
2019-03-18T08:26:30.560Z,27.00
2019-03-18T08:29:03.485Z,27.98
2019-03-18T08:31:37.672Z,22.90
2019-03-18T08:34:10.357Z,22.62
2019-03-18T08:36:43.840Z,29.20
2019-03-18T08:39:16.705Z,24.27
2019-03-18T08:41:50.025Z,21.93
2019-03-18T08:44:22.712Z,20.50
2019-03-18T08:46:55.842Z,20.27
2019-03-18T08:49:28.368Z,21.42
2019-03-18T08:52:01.564Z,19.40
2019-03-18T08:54:34.605Z,21.97
2019-03-18T08:57:10.933Z,22.77
2019-03-18T08:59:44.449Z,27.05
2019-03-18T09:02:17.719Z,28.77
2019-03-18T09:04:51.650Z,31.17
2019-03-18T09:07:27.799Z,39.83
2019-03-18T09:10:01.157Z,38.90
2019-03-18T09:12:35.457Z,30.10
2019-03-18T09:15:14.549Z,36.48
2019-03-18T09:17:47.654Z,31.07
2019-03-18T09:20:22.536Z,27.25
2019-03-18T09:22:57.150Z,28.50
2019-03-18T09:25:29.690Z,23.87
2019-03-18T09:28:04.917Z,31.65
2019-03-18T09:30:40.756Z,30.37
2019-03-18T09:33:13.962Z,30.55
2019-03-18T09:35:46.869Z,34.10
2019-03-18T09:38:20.148Z,36.75
2019-03-18T09:40:53.436Z,35.45
2019-03-18T09:43:26.825Z,39.18
2019-03-18T09:45:59.996Z,43.28
2019-03-18T09:48:35.656Z,42.93
2019-03-18T09:51:09.773Z,43.60
2019-03-18T09:53:43.137Z,45.33
2019-03-18T09:56:17.154Z,45.55
2019-03-18T09:58:50.022Z,49.35
2019-03-18T10:01:26.600Z,51.40
2019-03-18T10:03:59.951Z,49.42
2019-03-18T10:06:32.776Z,48.90
2019-03-18T10:09:08.222Z,51.53
2019-03-18T10:11:41.582Z,53.00
2019-03-18T10:14:14.726Z,52.33
2019-03-18T10:16:52.990Z,43.78
2019-03-18T10:19:32.994Z,39.90
2019-03-18T10:21:56.803Z,36.42
2019-03-18T10:24:30.008Z,46.02
2019-03-18T10:27:02.921Z,36.30
2019-03-18T10:29:36.304Z,37.65
2019-03-18T10:32:09.247Z,28.73
2019-03-18T10:34:42.703Z,30.72
2019-03-18T10:37:17.050Z,28.17
2019-03-18T10:39:50.139Z,29.20
2019-03-18T10:42:23.132Z,28.83
2019-03-18T10:44:57.065Z,27.58
2019-03-18T10:47:30.097Z,30.85
2019-03-18T10:50:03.002Z,32.30
2019-03-18T10:52:36.400Z,32.95
2019-03-18T10:55:10.799Z,33.95
2019-03-18T10:57:44.071Z,28.92
2019-03-18T11:00:17.698Z,23.87
2019-03-18T11:02:50.998Z,35.10
2019-03-18T11:05:26.705Z,32.00
2019-03-18T11:08:00.618Z,32.28
2019-03-18T11:10:34.898Z,36.35
2019-03-18T11:13:08.294Z,31.52
2019-03-18T11:15:41.420Z,29.92
2019-03-18T11:18:14.992Z,33.45
2019-03-18T11:20:48.882Z,32.95
2019-03-18T11:23:22.734Z,28.75
2019-03-18T11:25:56.093Z,39.60
2019-03-18T11:28:29.918Z,41.98
2019-03-18T11:31:02.824Z,40.52
2019-03-18T11:33:36.136Z,43.60
2019-03-18T11:36:09.621Z,41.05
2019-03-18T11:38:42.772Z,35.08
2019-03-18T11:41:17.611Z,36.55
2019-03-18T11:43:51.187Z,40.00
2019-03-18T11:46:27.400Z,40.75
2019-03-18T11:49:01.320Z,38.33
2019-03-18T11:51:34.454Z,40.23
2019-03-18T11:54:08.701Z,41.08
2019-03-18T11:59:41.695Z,43.20
2019-03-18T11:59:47.046Z,46.15
2019-03-18T12:02:27.749Z,49.60
2019-03-18T12:04:57.853Z,48.95
2019-03-18T12:07:32.066Z,44.18
2019-03-18T12:10:06.125Z,39.92
2019-03-18T12:12:39.212Z,38.42
2019-03-18T12:15:14.277Z,42.45
2019-03-18T12:17:47.539Z,45.78
2019-03-18T12:20:24.683Z,45.92
2019-03-18T12:22:54.928Z,43.73
2019-03-18T12:25:27.848Z,47.08
2019-03-18T12:28:05.012Z,39.27
2019-03-18T12:30:37.350Z,46.58
2019-03-18T12:33:10.453Z,40.70
2019-03-18T12:35:43.531Z,46.50
2019-03-18T12:38:16.372Z,45.80
2019-03-18T12:40:49.469Z,46.50
2019-03-18T12:43:22.436Z,44.85
2019-03-18T12:45:55.942Z,47.08
2019-03-18T12:48:30.673Z,52.80
2019-03-18T12:51:05.752Z,50.03
2019-03-18T12:53:38.727Z,49.48
2019-03-18T12:56:13.933Z,53.70
2019-03-18T12:58:47.070Z,50.03
2019-03-18T13:01:21.413Z,45.88
2019-03-18T13:03:54.787Z,47.62
2019-03-18T13:06:27.533Z,49.40
2019-03-18T13:09:02.431Z,46.15
2019-03-18T13:11:36.118Z,46.95
2019-03-18T13:14:12.550Z,46.33
2019-03-18T13:16:49.324Z,46.23
2019-03-18T13:19:22.717Z,45.40
2019-03-18T13:22:00.598Z,47.73
2019-03-18T13:24:34.174Z,45.85
2019-03-18T13:27:08.936Z,47.60
2019-03-18T13:29:41.909Z,47.95
2019-03-18T13:32:17.227Z,50.43
2019-03-18T13:34:50.199Z,49.53
2019-03-18T13:37:26.038Z,49.48
2019-03-18T13:40:00.431Z,46.95
2019-03-18T13:42:34.471Z,48.90
2019-03-18T13:45:38.881Z,51.48
2019-03-18T13:48:11.271Z,52.85
2019-03-18T13:50:45.221Z,48.75
2019-03-18T13:53:19.740Z,50.23
2019-03-18T13:55:52.545Z,50.52
2019-03-18T13:58:25.761Z,53.55
2019-03-18T14:00:58.894Z,57.60
2019-03-18T14:03:32.475Z,54.88
2019-03-18T14:06:05.774Z,53.58
2019-03-18T14:08:39.626Z,53.02
2019-03-18T14:11:16.196Z,52.20
2019-03-18T14:13:51.708Z,55.55
2019-03-18T14:16:27.143Z,55.65
2019-03-18T14:19:00.224Z,52.08
2019-03-18T14:21:33.712Z,53.45
2019-03-18T14:24:07.330Z,54.13
2019-03-18T14:26:40.364Z,51.63
2019-03-18T14:29:15.478Z,53.02
2019-03-18T14:31:48.837Z,57.85
2019-03-18T14:34:22.048Z,56.08
2019-03-18T14:36:54.697Z,54.40
2019-03-18T14:39:27.490Z,53.00
2019-03-18T14:42:04.528Z,53.78
2019-03-18T14:44:38.694Z,57.65
2019-03-18T14:47:11.553Z,56.00
2019-03-18T14:49:46.359Z,53.10
2019-03-18T14:52:18.656Z,56.55
2019-03-18T14:54:51.590Z,53.75
2019-03-18T14:57:27.476Z,52.88
2019-03-18T15:00:04.511Z,50.90
2019-03-18T15:02:40.299Z,52.80
2019-03-18T15:05:15.985Z,49.93
2019-03-18T15:07:50.197Z,50.88
2019-03-18T15:10:24.545Z,50.25
2019-03-18T15:12:58.392Z,55.80
2019-03-18T15:15:33.751Z,52.78
2019-03-18T15:18:07.051Z,51.98
2019-03-18T15:20:41.264Z,54.20
2019-03-18T15:23:14.437Z,56.45
2019-03-18T15:25:48.066Z,55.55
2019-03-18T15:28:23.219Z,56.50
2019-03-18T15:30:56.732Z,57.00
2019-03-18T15:33:30.905Z,57.48
2019-03-18T15:36:04.395Z,58.95
2019-03-18T15:38:37.615Z,59.80
2019-03-18T15:41:10.842Z,57.13
2019-03-18T15:43:43.811Z,61.28
2019-03-18T15:46:18.318Z,56.58
2019-03-18T15:48:51.362Z,59.88
2019-03-18T15:51:24.946Z,58.15
2019-03-18T15:53:57.794Z,52.90
2019-03-18T15:56:32.191Z,54.25
2019-03-18T15:59:09.227Z,48.73
2019-03-18T16:01:44.814Z,51.45
2019-03-18T16:04:18.414Z,53.83
2019-03-18T16:06:52.451Z,55.80
2019-03-18T16:09:25.545Z,57.98
2019-03-18T16:11:59.385Z,59.00
2019-03-18T16:14:32.611Z,61.00
2019-03-18T16:17:05.564Z,58.65
2019-03-18T16:19:38.725Z,63.15
2019-03-18T16:22:23.025Z,54.03
2019-03-18T16:24:46.391Z,32.08
2019-03-18T16:27:22.577Z,50.67
2019-03-18T16:29:56.185Z,65.50
2019-03-18T16:32:29.423Z,74.25
2019-03-18T16:35:02.669Z,71.40
2019-03-18T16:37:36.236Z,63.85
2019-03-18T16:40:11.258Z,53.92
2019-03-18T16:42:46.295Z,52.70
2019-03-18T16:45:19.694Z,56.00
2019-03-18T16:47:56.202Z,50.08
2019-03-18T16:50:33.985Z,45.43
2019-03-18T16:53:07.731Z,55.35
2019-03-18T16:55:42.649Z,51.33
2019-03-18T16:58:16.594Z,48.87
2019-03-18T17:00:49.473Z,46.65
2019-03-18T17:03:26.245Z,47.00
2019-03-18T17:05:59.345Z,44.95
2019-03-18T17:08:32.484Z,49.98
2019-03-18T17:11:08.007Z,50.65
2019-03-18T17:13:42.215Z,57.13
2019-03-18T17:16:15.074Z,53.92
2019-03-18T17:18:48.345Z,55.60
2019-03-18T17:21:22.331Z,55.63
2019-03-18T17:23:55.723Z,52.58
2019-03-18T17:26:30.195Z,54.20
2019-03-18T17:29:03.947Z,56.85
2019-03-18T17:31:36.693Z,67.50
2019-03-18T17:34:10.540Z,65.37
2019-03-18T17:36:43.279Z,68.10
2019-03-18T17:39:16.679Z,63.38
2019-03-18T17:41:49.527Z,70.65
2019-03-18T17:44:22.959Z,77.30
2019-03-18T17:46:55.949Z,70.72
2019-03-18T17:49:29.305Z,72.12
2019-03-18T17:52:02.297Z,73.40
2019-03-18T17:54:38.284Z,74.42
2019-03-18T17:57:11.398Z,71.45
2019-03-18T17:59:45.430Z,77.60
2019-03-18T18:02:18.619Z,76.97
2019-03-18T18:05:02.795Z,75.85
2019-03-18T18:07:31.221Z,78.97
2019-03-18T18:10:04.440Z,83.52
2019-03-18T18:12:37.327Z,81.70
2019-03-18T18:15:15.034Z,80.90
2019-03-18T18:17:48.130Z,84.00
2019-03-18T18:20:21.042Z,86.15
2019-03-18T18:22:54.136Z,85.90
2019-03-18T18:25:26.901Z,87.80
2019-03-18T18:27:59.823Z,92.42
2019-03-18T18:30:32.922Z,93.22
2019-03-18T18:33:07.938Z,95.87
2019-03-18T18:35:40.958Z,94.37
2019-03-18T18:38:14.333Z,95.00
2019-03-18T18:40:49.496Z,90.62
2019-03-18T18:43:25.469Z,88.95
2019-03-18T18:45:58.237Z,88.85
2019-03-18T18:48:31.955Z,94.67
2019-03-18T18:51:04.610Z,86.82
2019-03-18T18:53:38.020Z,87.17
2019-03-18T18:56:10.601Z,88.05
2019-03-18T18:58:44.135Z,93.72
2019-03-18T19:01:16.933Z,85.20
2019-03-18T19:03:49.868Z,84.17
2019-03-18T19:06:23.063Z,88.85
2019-03-18T19:08:56.651Z,87.27
2019-03-18T19:11:30.458Z,87.20
2019-03-18T19:14:03.384Z,85.62
2019-03-18T19:16:36.534Z,85.75
2019-03-18T19:19:10.749Z,86.10
2019-03-18T19:21:43.806Z,89.92
2019-03-18T19:24:16.553Z,86.85
2019-03-18T19:26:49.719Z,89.05
2019-03-18T19:29:22.557Z,92.60
2019-03-18T19:31:55.523Z,94.13
2019-03-18T19:34:28.735Z,94.55
2019-03-18T19:37:01.528Z,95.03
2019-03-18T19:39:34.962Z,89.15
2019-03-18T19:42:08.039Z,86.22
2019-03-18T19:44:41.314Z,94.20
2019-03-18T19:47:14.689Z,92.27
2019-03-18T19:49:47.739Z,85.42
2019-03-18T19:52:20.718Z,80.57
2019-03-18T19:54:54.735Z,86.28
2019-03-18T19:57:28.481Z,81.10
2019-03-18T20:00:01.481Z,82.88
2019-03-18T20:02:35.910Z,79.47
2019-03-18T20:05:14.922Z,82.70
2019-03-18T20:07:44.162Z,77.05
2019-03-18T20:10:18.515Z,69.85
2019-03-18T20:12:51.816Z,67.27
2019-03-18T20:15:24.774Z,65.05
2019-03-18T20:17:58.029Z,68.20
2019-03-18T20:20:30.959Z,68.97
2019-03-18T20:23:04.014Z,65.78
2019-03-18T20:25:37.263Z,63.20
2019-03-18T20:28:10.265Z,65.08
2019-03-18T20:30:43.203Z,64.85
2019-03-18T20:33:16.419Z,63.13
2019-03-18T20:35:49.561Z,59.58
2019-03-18T20:38:22.244Z,61.88
2019-03-18T20:40:55.214Z,60.12
2019-03-18T20:43:30.075Z,61.60
2019-03-18T20:46:10.273Z,62.08
2019-03-18T20:48:44.130Z,61.15
2019-03-18T20:51:18.189Z,61.50
2019-03-18T20:53:51.990Z,58.92
2019-03-18T20:56:25.360Z,61.45
2019-03-18T20:58:58.918Z,58.70
2019-03-18T21:01:33.511Z,59.03
2019-03-18T21:04:07.219Z,60.38
2019-03-18T21:06:40.372Z,64.42
2019-03-18T21:09:13.891Z,61.28
2019-03-18T21:11:46.846Z,59.25
2019-03-18T21:14:19.800Z,58.75
2019-03-18T21:16:52.775Z,63.10
2019-03-18T21:19:25.787Z,60.23
2019-03-18T21:21:58.993Z,61.83
2019-03-18T21:24:44.077Z,61.33
2019-03-18T21:27:17.795Z,59.25
2019-03-18T21:29:50.604Z,60.70
2019-03-18T21:32:23.355Z,64.00
2019-03-18T21:34:57.120Z,64.67
2019-03-18T21:37:30.088Z,62.30
2019-03-18T21:40:03.170Z,66.50
2019-03-18T21:42:36.127Z,67.92
2019-03-18T21:45:26.058Z,65.47
2019-03-18T21:47:58.792Z,72.87
2019-03-18T21:50:32.131Z,76.05
2019-03-18T21:53:05.128Z,74.50
2019-03-18T21:55:39.037Z,78.50
2019-03-18T21:58:12.108Z,80.90
2019-03-18T22:00:45.757Z,79.75
2019-03-18T22:03:18.411Z,83.85
2019-03-18T22:05:51.323Z,79.53
2019-03-18T22:08:24.237Z,82.65
2019-03-18T22:10:57.418Z,82.55
2019-03-18T22:13:30.321Z,84.30
2019-03-18T22:16:03.345Z,87.53
2019-03-18T22:18:35.980Z,89.00
2019-03-18T22:21:09.112Z,87.97
2019-03-18T22:23:41.883Z,86.35
2019-03-18T22:26:15.384Z,85.83
2019-03-18T22:28:49.256Z,84.22
2019-03-18T22:31:23.827Z,83.17
2019-03-18T22:33:56.894Z,85.83
2019-03-18T22:36:30.724Z,85.20
2019-03-18T22:39:03.694Z,84.87
2019-03-18T22:41:37.172Z,78.17
2019-03-18T22:44:10.336Z,84.30
2019-03-18T22:46:43.336Z,89.77
2019-03-18T22:49:16.486Z,88.80
2019-03-18T22:51:49.763Z,88.35
2019-03-18T22:54:23.084Z,86.22
2019-03-18T22:56:56.315Z,90.55
2019-03-18T22:59:29.899Z,88.62
2019-03-18T23:02:03.414Z,81.65
2019-03-18T23:04:36.691Z,89.30
2019-03-18T23:07:10.266Z,91.00
2019-03-18T23:09:43.175Z,90.47
2019-03-18T23:12:16.146Z,87.35
2019-03-18T23:14:49.084Z,86.17
2019-03-18T23:17:22.204Z,91.72
2019-03-18T23:19:55.057Z,88.90
2019-03-18T23:22:28.287Z,91.55
2019-03-18T23:25:06.957Z,91.17
2019-03-18T23:27:35.982Z,87.55
2019-03-18T23:30:11.359Z,85.28
2019-03-18T23:32:44.287Z,85.25
2019-03-18T23:35:17.381Z,88.47
2019-03-18T23:37:50.266Z,87.60
2019-03-18T23:40:23.514Z,88.97
2019-03-18T23:42:56.471Z,85.80
2019-03-18T23:45:33.382Z,83.58
2019-03-18T23:48:07.256Z,92.42
2019-03-18T23:50:40.487Z,87.33
2019-03-18T23:53:13.797Z,84.77
2019-03-18T23:55:46.843Z,92.42
2019-03-18T23:58:20.109Z,89.50
